Irura, Spain
Current Conditions -  °F | °C
As of 6:00 PM on Sunday 23 Nov 2014 (Local Time) from LESO Reporting Station
Clear Clear  
Wind Chill: 68°   Ceiling: Unl
Heat Index: 68°   Visibility: 6mi
Dew Point: 57°   Wind: 5mph
Humidity: 68%   Direction: NA
Pressure: 29.91"   Gusts: NA
Location:  43.17°N, 2.07°W
Report Text: LESO 231700Z VRB04KT CAVOK 20/14 Q1013
Loading
Personal Weather Stations






























Interactive Weather Map New forecast layout! Learn more

10-Day Weather Forecast

Advertisements
Track Severe Weather on mobile